sensor_id;sensor_type;location;lat;lon;timestamp;pressure;altitude;pressure_sealevel;temperature;humidity
550;BME280;20066;48.764;9.176;2022-09-09T00:00:43;97844.34;;;19.84;51.19
550;BME280;20066;48.764;9.176;2022-09-09T00:03:19;97840.16;;;19.03;53.09
550;BME280;20066;48.764;9.176;2022-09-09T00:05:57;97842.63;;;19.59;52.03
550;BME280;20066;48.764;9.176;2022-09-09T00:08:34;97837.91;;;19.60;51.49
550;BME280;20066;48.764;9.176;2022-09-09T00:11:09;97835.03;;;19.54;51.84
550;BME280;20066;48.764;9.176;2022-09-09T00:13:43;97828.09;;;19.81;51.30
550;BME280;20066;48.764;9.176;2022-09-09T00:16:17;97834.56;;;19.47;52.08
550;BME280;20066;48.764;9.176;2022-09-09T00:18:53;97836.75;;;19.97;51.55
550;BME280;20066;48.764;9.176;2022-09-09T00:21:30;97835.38;;;20.11;51.29
550;BME280;20066;48.764;9.176;2022-09-09T00:24:04;97828.09;;;20.35;50.55
550;BME280;20066;48.764;9.176;2022-09-09T00:26:38;97827.81;;;19.88;51.00
550;BME280;20066;48.764;9.176;2022-09-09T00:29:14;97826.91;;;19.82;51.15
550;BME280;20066;48.764;9.176;2022-09-09T00:31:47;97827.06;;;19.96;51.00
550;BME280;20066;48.764;9.176;2022-09-09T00:34:20;97829.31;;;19.89;50.80
550;BME280;20066;48.764;9.176;2022-09-09T00:36:50;97839.94;;;20.32;50.29
550;BME280;20066;48.764;9.176;2022-09-09T00:39:25;97831.88;;;20.38;50.29
550;BME280;20066;48.764;9.176;2022-09-09T00:42:03;97826.56;;;20.62;49.86
550;BME280;20066;48.764;9.176;2022-09-09T00:44:51;97824.69;;;20.77;49.28
550;BME280;20066;48.764;9.176;2022-09-09T00:47:43;97830.50;;;20.70;48.54
550;BME280;20066;48.764;9.176;2022-09-09T00:50:34;97834.66;;;20.02;50.00
550;BME280;20066;48.764;9.176;2022-09-09T00:53:13;97833.41;;;20.21;49.57
550;BME280;20066;48.764;9.176;2022-09-09T00:55:48;97834.31;;;20.27;49.74
550;BME280;20066;48.764;9.176;2022-09-09T00:58:16;97835.06;;;20.36;50.15
550;BME280;20066;48.764;9.176;2022-09-09T01:00:46;97831.25;;;20.43;50.47
550;BME280;20066;48.764;9.176;2022-09-09T01:03:33;97833.13;;;19.82;50.45
550;BME280;20066;48.764;9.176;2022-09-09T01:06:12;97833.72;;;20.05;50.29
550;BME280;20066;48.764;9.176;2022-09-09T01:09:05;97826.00;;;20.21;49.83
550;BME280;20066;48.764;9.176;2022-09-09T01:11:44;97818.06;;;20.42;49.01
550;BME280;20066;48.764;9.176;2022-09-09T01:14:29;97825.84;;;20.25;49.49
550;BME280;20066;48.764;9.176;2022-09-09T01:17:01;97822.47;;;20.39;49.47
550;BME280;20066;48.764;9.176;2022-09-09T01:19:40;97822.22;;;20.10;50.24
550;BME280;20066;48.764;9.176;2022-09-09T01:22:22;97826.91;;;19.91;50.43
550;BME280;20066;48.764;9.176;2022-09-09T01:25:13;97832.38;;;19.23;52.66
550;BME280;20066;48.764;9.176;2022-09-09T01:27:46;97826.13;;;19.14;52.51
550;BME280;20066;48.764;9.176;2022-09-09T01:30:17;97844.44;;;19.62;51.19
550;BME280;20066;48.764;9.176;2022-09-09T01:32:48;97843.44;;;19.96;50.13
550;BME280;20066;48.764;9.176;2022-09-09T01:35:26;97842.38;;;19.76;50.41
550;BME280;20066;48.764;9.176;2022-09-09T01:37:56;97849.66;;;19.79;50.66
550;BME280;20066;48.764;9.176;2022-09-09T01:40:25;97845.28;;;20.09;50.00
550;BME280;20066;48.764;9.176;2022-09-09T01:42:54;97835.56;;;19.89;51.21
550;BME280;20066;48.764;9.176;2022-09-09T01:45:23;97840.84;;;20.38;49.94
550;BME280;20066;48.764;9.176;2022-09-09T01:47:52;97834.63;;;19.83;50.75
550;BME280;20066;48.764;9.176;2022-09-09T01:50:20;97837.56;;;19.31;52.51
550;BME280;20066;48.764;9.176;2022-09-09T01:52:50;97840.41;;;18.87;53.43
550;BME280;20066;48.764;9.176;2022-09-09T01:55:37;97833.31;;;19.30;52.07
550;BME280;20066;48.764;9.176;2022-09-09T01:58:32;97828.69;;;19.17;52.26
550;BME280;20066;48.764;9.176;2022-09-09T02:01:06;97835.00;;;18.96;53.29
550;BME280;20066;48.764;9.176;2022-09-09T02:03:38;97829.88;;;19.47;51.87
550;BME280;20066;48.764;9.176;2022-09-09T02:06:14;97829.25;;;19.03;52.22
550;BME280;20066;48.764;9.176;2022-09-09T02:08:49;97826.38;;;17.89;55.49
550;BME280;20066;48.764;9.176;2022-09-09T02:11:18;97827.19;;;17.77;56.00
550;BME280;20066;48.764;9.176;2022-09-09T02:13:51;97835.69;;;18.13;54.83
550;BME280;20066;48.764;9.176;2022-09-09T02:16:24;97835.06;;;19.63;51.29
550;BME280;20066;48.764;9.176;2022-09-09T02:18:56;97846.94;;;20.06;50.77
550;BME280;20066;48.764;9.176;2022-09-09T02:21:27;97841.63;;;19.84;51.36
550;BME280;20066;48.764;9.176;2022-09-09T02:23:58;97839.19;;;19.77;51.96
550;BME280;20066;48.764;9.176;2022-09-09T02:26:27;97833.38;;;19.66;52.16
550;BME280;20066;48.764;9.176;2022-09-09T02:28:58;97829.56;;;19.45;52.72
550;BME280;20066;48.764;9.176;2022-09-09T02:31:27;97842.47;;;19.54;52.66
550;BME280;20066;48.764;9.176;2022-09-09T02:33:57;97848.66;;;19.45;53.00
550;BME280;20066;48.764;9.176;2022-09-09T02:36:29;97850.16;;;19.46;52.65
550;BME280;20066;48.764;9.176;2022-09-09T02:38:59;97853.06;;;19.52;52.95
550;BME280;20066;48.764;9.176;2022-09-09T02:41:31;97849.56;;;19.02;53.50
550;BME280;20066;48.764;9.176;2022-09-09T02:44:00;97844.34;;;17.99;56.76
550;BME280;20066;48.764;9.176;2022-09-09T02:46:37;97848.03;;;18.27;57.00
550;BME280;20066;48.764;9.176;2022-09-09T02:49:18;97835.50;;;18.82;54.82
550;BME280;20066;48.764;9.176;2022-09-09T02:51:51;97834.50;;;18.89;54.06
550;BME280;20066;48.764;9.176;2022-09-09T02:54:26;97832.03;;;18.81;54.74
550;BME280;20066;48.764;9.176;2022-09-09T02:57:02;97833.22;;;18.80;54.78
550;BME280;20066;48.764;9.176;2022-09-09T02:59:33;97833.03;;;18.00;56.04
550;BME280;20066;48.764;9.176;2022-09-09T03:02:01;97832.56;;;18.02;56.57
550;BME280;20066;48.764;9.176;2022-09-09T03:04:29;97816.78;;;17.62;57.93
550;BME280;20066;48.764;9.176;2022-09-09T03:06:58;97816.72;;;17.41;58.37
550;BME280;20066;48.764;9.176;2022-09-09T03:09:26;97818.97;;;18.76;54.43
550;BME280;20066;48.764;9.176;2022-09-09T03:11:53;97818.66;;;18.43;55.13
550;BME280;20066;48.764;9.176;2022-09-09T03:14:22;97819.63;;;17.93;56.73
550;BME280;20066;48.764;9.176;2022-09-09T03:16:53;97824.03;;;18.13;56.34
550;BME280;20066;48.764;9.176;2022-09-09T03:19:22;97831.03;;;17.66;57.38
550;BME280;20066;48.764;9.176;2022-09-09T03:21:50;97822.53;;;17.77;57.27
550;BME280;20066;48.764;9.176;2022-09-09T03:24:18;97820.88;;;18.14;56.20
550;BME280;20066;48.764;9.176;2022-09-09T03:26:46;97817.44;;;18.97;54.49
550;BME280;20066;48.764;9.176;2022-09-09T03:29:14;97821.44;;;19.14;53.34
550;BME280;20066;48.764;9.176;2022-09-09T03:31:41;97823.34;;;19.54;52.84
550;BME280;20066;48.764;9.176;2022-09-09T03:34:11;97822.81;;;19.19;54.14
550;BME280;20066;48.764;9.176;2022-09-09T03:36:39;97818.22;;;19.07;54.28
550;BME280;20066;48.764;9.176;2022-09-09T03:39:07;97830.75;;;18.73;54.61
550;BME280;20066;48.764;9.176;2022-09-09T03:41:35;97820.44;;;18.37;55.25
550;BME280;20066;48.764;9.176;2022-09-09T03:44:03;97822.06;;;18.13;55.74
550;BME280;20066;48.764;9.176;2022-09-09T03:46:31;97820.16;;;18.44;54.70
550;BME280;20066;48.764;9.176;2022-09-09T03:49:00;97824.94;;;19.15;53.31
550;BME280;20066;48.764;9.176;2022-09-09T03:51:29;97826.09;;;19.05;53.55
550;BME280;20066;48.764;9.176;2022-09-09T03:53:56;97823.97;;;19.00;53.18
550;BME280;20066;48.764;9.176;2022-09-09T03:56:24;97807.84;;;18.31;54.80
550;BME280;20066;48.764;9.176;2022-09-09T03:58:52;97814.03;;;18.31;55.31
550;BME280;20066;48.764;9.176;2022-09-09T04:01:20;97815.72;;;18.60;54.65
550;BME280;20066;48.764;9.176;2022-09-09T04:03:48;97813.44;;;18.58;54.63
550;BME280;20066;48.764;9.176;2022-09-09T04:06:16;97821.72;;;18.76;54.74
550;BME280;20066;48.764;9.176;2022-09-09T04:08:45;97824.56;;;18.73;53.98
550;BME280;20066;48.764;9.176;2022-09-09T04:11:15;97819.94;;;18.30;55.01
550;BME280;20066;48.764;9.176;2022-09-09T04:13:42;97823.19;;;18.99;54.02
550;BME280;20066;48.764;9.176;2022-09-09T04:16:12;97813.91;;;18.35;55.03
550;BME280;20066;48.764;9.176;2022-09-09T04:18:41;97813.06;;;17.69;57.11
550;BME280;20066;48.764;9.176;2022-09-09T04:21:09;97812.56;;;17.49;58.42
550;BME280;20066;48.764;9.176;2022-09-09T04:23:38;97821.81;;;17.51;58.39
550;BME280;20066;48.764;9.176;2022-09-09T04:26:08;97819.19;;;17.60;58.07
550;BME280;20066;48.764;9.176;2022-09-09T04:28:36;97833.22;;;17.59;57.95
550;BME280;20066;48.764;9.176;2022-09-09T04:31:06;97829.66;;;18.18;56.32
550;BME280;20066;48.764;9.176;2022-09-09T04:33:34;97822.38;;;17.33;58.98
550;BME280;20066;48.764;9.176;2022-09-09T04:36:06;97826.50;;;17.98;57.24
550;BME280;20066;48.764;9.176;2022-09-09T04:38:34;97829.44;;;17.91;57.03
550;BME280;20066;48.764;9.176;2022-09-09T04:41:02;97828.22;;;17.57;58.33
550;BME280;20066;48.764;9.176;2022-09-09T04:43:32;97829.03;;;18.36;56.56
550;BME280;20066;48.764;9.176;2022-09-09T04:45:59;97826.34;;;17.67;57.81
550;BME280;20066;48.764;9.176;2022-09-09T04:48:27;97829.16;;;18.54;55.55
550;BME280;20066;48.764;9.176;2022-09-09T04:50:56;97830.25;;;18.35;55.86
550;BME280;20066;48.764;9.176;2022-09-09T04:53:25;97842.06;;;17.97;57.20
550;BME280;20066;48.764;9.176;2022-09-09T04:56:01;97846.66;;;18.44;56.36
550;BME280;20066;48.764;9.176;2022-09-09T04:58:29;97841.97;;;18.44;56.13
550;BME280;20066;48.764;9.176;2022-09-09T05:01:04;97839.69;;;18.21;56.75
550;BME280;20066;48.764;9.176;2022-09-09T05:03:32;97835.06;;;18.53;55.69
550;BME280;20066;48.764;9.176;2022-09-09T05:06:11;97835.75;;;18.44;56.33
550;BME280;20066;48.764;9.176;2022-09-09T05:08:40;97846.06;;;18.05;57.00
550;BME280;20066;48.764;9.176;2022-09-09T05:11:15;97856.97;;;18.71;55.18
550;BME280;20066;48.764;9.176;2022-09-09T05:13:44;97852.28;;;18.06;57.06
550;BME280;20066;48.764;9.176;2022-09-09T05:16:14;97856.66;;;18.47;55.75
550;BME280;20066;48.764;9.176;2022-09-09T05:18:42;97856.38;;;18.10;56.84
550;BME280;20066;48.764;9.176;2022-09-09T05:21:11;97850.75;;;18.05;57.01
550;BME280;20066;48.764;9.176;2022-09-09T05:23:39;97852.50;;;18.64;55.86
550;BME280;20066;48.764;9.176;2022-09-09T05:26:09;97856.50;;;18.72;55.35
550;BME280;20066;48.764;9.176;2022-09-09T05:28:43;97858.63;;;18.99;54.42
550;BME280;20066;48.764;9.176;2022-09-09T05:31:14;97853.47;;;19.32;54.07
550;BME280;20066;48.764;9.176;2022-09-09T05:33:44;97859.94;;;18.85;54.87
550;BME280;20066;48.764;9.176;2022-09-09T05:36:13;97861.38;;;19.48;53.54
550;BME280;20066;48.764;9.176;2022-09-09T05:38:42;97864.34;;;19.23;54.65
550;BME280;20066;48.764;9.176;2022-09-09T05:41:11;97869.84;;;19.32;54.77
550;BME280;20066;48.764;9.176;2022-09-09T05:43:39;97870.34;;;19.58;54.11
550;BME280;20066;48.764;9.176;2022-09-09T05:46:08;97874.69;;;19.95;52.47
550;BME280;20066;48.764;9.176;2022-09-09T05:48:39;97876.66;;;20.13;52.09
550;BME280;20066;48.764;9.176;2022-09-09T05:51:10;97870.31;;;19.49;53.31
550;BME280;20066;48.764;9.176;2022-09-09T05:53:39;97875.41;;;19.69;52.96
550;BME280;20066;48.764;9.176;2022-09-09T05:56:09;97872.97;;;18.25;57.20
550;BME280;20066;48.764;9.176;2022-09-09T05:58:37;97872.72;;;18.32;57.09
550;BME280;20066;48.764;9.176;2022-09-09T06:01:07;97875.53;;;18.85;55.76
550;BME280;20066;48.764;9.176;2022-09-09T06:03:38;97886.13;;;18.39;57.00
550;BME280;20066;48.764;9.176;2022-09-09T06:06:08;97876.56;;;17.28;60.80
550;BME280;20066;48.764;9.176;2022-09-09T06:08:37;97881.53;;;18.36;57.56
550;BME280;20066;48.764;9.176;2022-09-09T06:11:07;97876.28;;;18.20;58.46
550;BME280;20066;48.764;9.176;2022-09-09T06:13:35;97874.91;;;18.03;58.39
550;BME280;20066;48.764;9.176;2022-09-09T06:16:04;97878.75;;;18.71;56.60
550;BME280;20066;48.764;9.176;2022-09-09T06:18:33;97872.09;;;19.24;55.34
550;BME280;20066;48.764;9.176;2022-09-09T06:21:04;97882.44;;;18.77;56.92
550;BME280;20066;48.764;9.176;2022-09-09T06:23:33;97888.38;;;18.19;58.05
550;BME280;20066;48.764;9.176;2022-09-09T06:26:04;97876.69;;;17.84;60.14
550;BME280;20066;48.764;9.176;2022-09-09T06:28:33;97877.16;;;18.17;59.78
550;BME280;20066;48.764;9.176;2022-09-09T06:31:02;97883.03;;;17.68;61.08
550;BME280;20066;48.764;9.176;2022-09-09T06:33:32;97890.66;;;18.21;60.03
550;BME280;20066;48.764;9.176;2022-09-09T06:36:03;97886.69;;;18.00;60.18
550;BME280;20066;48.764;9.176;2022-09-09T06:38:31;97883.66;;;18.54;59.02
550;BME280;20066;48.764;9.176;2022-09-09T06:40:59;97880.84;;;18.23;59.56
550;BME280;20066;48.764;9.176;2022-09-09T06:43:28;97889.84;;;17.86;60.81
550;BME280;20066;48.764;9.176;2022-09-09T06:45:56;97884.38;;;18.33;59.70
550;BME280;20066;48.764;9.176;2022-09-09T06:48:24;97887.06;;;18.24;60.15
550;BME280;20066;48.764;9.176;2022-09-09T06:51:01;97881.41;;;18.40;59.09
550;BME280;20066;48.764;9.176;2022-09-09T06:53:30;97884.16;;;18.62;58.81
550;BME280;20066;48.764;9.176;2022-09-09T06:56:00;97889.25;;;19.03;57.95
550;BME280;20066;48.764;9.176;2022-09-09T06:58:28;97897.25;;;19.29;56.96
550;BME280;20066;48.764;9.176;2022-09-09T07:01:02;97889.50;;;19.67;55.87
550;BME280;20066;48.764;9.176;2022-09-09T07:03:30;97897.63;;;20.53;53.88
550;BME280;20066;48.764;9.176;2022-09-09T07:05:58;97886.50;;;19.74;54.92
550;BME280;20066;48.764;9.176;2022-09-09T07:08:26;97893.63;;;19.81;55.32
550;BME280;20066;48.764;9.176;2022-09-09T07:11:02;97893.38;;;20.24;53.99
550;BME280;20066;48.764;9.176;2022-09-09T07:13:37;97895.94;;;20.46;53.50
550;BME280;20066;48.764;9.176;2022-09-09T07:16:05;97897.59;;;20.34;53.75
550;BME280;20066;48.764;9.176;2022-09-09T07:18:34;97898.84;;;20.24;54.05
550;BME280;20066;48.764;9.176;2022-09-09T07:21:03;97886.78;;;19.67;55.43
550;BME280;20066;48.764;9.176;2022-09-09T07:23:31;97891.69;;;20.45;53.36
550;BME280;20066;48.764;9.176;2022-09-09T07:26:07;97896.88;;;20.61;52.28
550;BME280;20066;48.764;9.176;2022-09-09T07:28:35;97887.16;;;20.60;52.73
550;BME280;20066;48.764;9.176;2022-09-09T07:31:04;97890.81;;;20.48;53.04
550;BME280;20066;48.764;9.176;2022-09-09T07:33:34;97901.84;;;20.81;52.31
550;BME280;20066;48.764;9.176;2022-09-09T07:36:04;97897.59;;;20.34;53.40
550;BME280;20066;48.764;9.176;2022-09-09T07:38:37;97887.44;;;19.98;54.81
550;BME280;20066;48.764;9.176;2022-09-09T07:41:09;97885.94;;;20.25;54.12
550;BME280;20066;48.764;9.176;2022-09-09T07:43:38;97891.34;;;20.89;52.17
550;BME280;20066;48.764;9.176;2022-09-09T07:46:08;97893.22;;;21.58;50.85
550;BME280;20066;48.764;9.176;2022-09-09T07:48:36;97894.59;;;22.48;48.29
550;BME280;20066;48.764;9.176;2022-09-09T07:51:06;97903.94;;;22.95;47.77
550;BME280;20066;48.764;9.176;2022-09-09T07:53:34;97910.16;;;23.10;46.41
550;BME280;20066;48.764;9.176;2022-09-09T07:56:04;97905.03;;;23.32;46.19
550;BME280;20066;48.764;9.176;2022-09-09T07:58:33;97903.44;;;24.16;44.06
550;BME280;20066;48.764;9.176;2022-09-09T08:01:09;97910.38;;;25.35;43.64
550;BME280;20066;48.764;9.176;2022-09-09T08:03:38;97916.66;;;26.26;40.75
550;BME280;20066;48.764;9.176;2022-09-09T08:06:07;97911.38;;;25.38;41.79
550;BME280;20066;48.764;9.176;2022-09-09T08:08:36;97920.00;;;25.93;40.02
550;BME280;20066;48.764;9.176;2022-09-09T08:11:06;97931.56;;;25.97;40.94
550;BME280;20066;48.764;9.176;2022-09-09T08:13:36;97919.84;;;25.60;40.43
550;BME280;20066;48.764;9.176;2022-09-09T08:16:06;97926.72;;;25.81;41.03
550;BME280;20066;48.764;9.176;2022-09-09T08:18:34;97908.72;;;25.49;41.83
550;BME280;20066;48.764;9.176;2022-09-09T08:21:10;97913.75;;;26.63;38.58
550;BME280;20066;48.764;9.176;2022-09-09T08:23:39;97913.56;;;27.56;36.53
550;BME280;20066;48.764;9.176;2022-09-09T08:26:11;97920.84;;;27.65;36.36
550;BME280;20066;48.764;9.176;2022-09-09T08:28:42;97935.88;;;29.37;35.46
550;BME280;20066;48.764;9.176;2022-09-09T08:31:12;97934.13;;;28.98;34.83
550;BME280;20066;48.764;9.176;2022-09-09T08:33:41;97931.19;;;27.31;38.62
550;BME280;20066;48.764;9.176;2022-09-09T08:36:13;97930.78;;;28.18;36.38
550;BME280;20066;48.764;9.176;2022-09-09T08:38:41;97941.22;;;28.42;33.91
550;BME280;20066;48.764;9.176;2022-09-09T08:41:22;97936.75;;;29.21;35.72
550;BME280;20066;48.764;9.176;2022-09-09T08:44:03;97922.81;;;28.55;34.29
550;BME280;20066;48.764;9.176;2022-09-09T08:46:41;97931.13;;;27.86;35.68
550;BME280;20066;48.764;9.176;2022-09-09T08:49:23;97934.03;;;28.74;36.72
550;BME280;20066;48.764;9.176;2022-09-09T08:51:56;97941.47;;;27.13;37.05
550;BME280;20066;48.764;9.176;2022-09-09T08:54:26;97938.72;;;27.52;36.28
550;BME280;20066;48.764;9.176;2022-09-09T08:57:20;97931.03;;;25.93;36.80
550;BME280;20066;48.764;9.176;2022-09-09T08:59:50;97919.25;;;24.67;40.87
550;BME280;20066;48.764;9.176;2022-09-09T09:02:24;97925.69;;;25.10;39.03
550;BME280;20066;48.764;9.176;2022-09-09T09:05:00;97919.84;;;26.84;36.69
550;BME280;20066;48.764;9.176;2022-09-09T09:07:41;97929.88;;;25.31;38.15
550;BME280;20066;48.764;9.176;2022-09-09T09:10:17;97932.31;;;23.71;40.82
550;BME280;20066;48.764;9.176;2022-09-09T09:13:13;97935.41;;;24.13;41.21
550;BME280;20066;48.764;9.176;2022-09-09T09:15:44;97935.38;;;23.93;40.49
550;BME280;20066;48.764;9.176;2022-09-09T09:18:17;97928.69;;;23.30;41.78
550;BME280;20066;48.764;9.176;2022-09-09T09:20:50;97929.94;;;22.85;43.56
550;BME280;20066;48.764;9.176;2022-09-09T09:23:23;97918.13;;;21.92;47.54
550;BME280;20066;48.764;9.176;2022-09-09T09:25:56;97926.13;;;22.05;48.61
550;BME280;20066;48.764;9.176;2022-09-09T09:28:28;97941.09;;;21.29;50.64
550;BME280;20066;48.764;9.176;2022-09-09T09:31:00;97952.72;;;20.88;51.06
550;BME280;20066;48.764;9.176;2022-09-09T09:33:35;97942.38;;;20.00;56.06
550;BME280;20066;48.764;9.176;2022-09-09T09:36:06;97926.91;;;19.27;59.35
550;BME280;20066;48.764;9.176;2022-09-09T09:38:36;97934.19;;;19.20;57.62
550;BME280;20066;48.764;9.176;2022-09-09T09:41:36;97933.28;;;21.79;50.24
550;BME280;20066;48.764;9.176;2022-09-09T09:44:18;97926.16;;;22.44;46.50
550;BME280;20066;48.764;9.176;2022-09-09T09:46:50;97934.84;;;23.25;44.37
550;BME280;20066;48.764;9.176;2022-09-09T09:49:18;97919.03;;;24.45;42.22
550;BME280;20066;48.764;9.176;2022-09-09T09:51:46;97916.84;;;25.01;41.56
550;BME280;20066;48.764;9.176;2022-09-09T09:54:18;97920.25;;;26.55;40.85
550;BME280;20066;48.764;9.176;2022-09-09T09:56:49;97911.28;;;26.76;39.06
550;BME280;20066;48.764;9.176;2022-09-09T09:59:22;97910.47;;;26.54;38.44
550;BME280;20066;48.764;9.176;2022-09-09T10:02:19;97893.44;;;27.72;36.77
550;BME280;20066;48.764;9.176;2022-09-09T10:04:47;97895.75;;;27.18;37.68
550;BME280;20066;48.764;9.176;2022-09-09T10:07:19;97897.53;;;27.32;38.82
550;BME280;20066;48.764;9.176;2022-09-09T10:09:51;97903.25;;;26.02;39.97
550;BME280;20066;48.764;9.176;2022-09-09T10:12:28;97895.41;;;26.55;37.84
550;BME280;20066;48.764;9.176;2022-09-09T10:15:02;97889.97;;;26.88;38.24
550;BME280;20066;48.764;9.176;2022-09-09T10:17:37;97890.59;;;26.33;38.81
550;BME280;20066;48.764;9.176;2022-09-09T10:20:17;97894.28;;;28.19;35.83
550;BME280;20066;48.764;9.176;2022-09-09T10:23:02;97886.91;;;27.75;37.19
550;BME280;20066;48.764;9.176;2022-09-09T10:25:50;97877.97;;;28.10;37.36
550;BME280;20066;48.764;9.176;2022-09-09T10:28:30;97882.44;;;26.66;39.19
550;BME280;20066;48.764;9.176;2022-09-09T10:31:09;97882.63;;;27.74;36.48
550;BME280;20066;48.764;9.176;2022-09-09T10:33:49;97881.13;;;26.45;38.81
550;BME280;20066;48.764;9.176;2022-09-09T10:36:20;97877.56;;;26.28;40.58
550;BME280;20066;48.764;9.176;2022-09-09T10:38:54;97880.44;;;27.23;38.45
550;BME280;20066;48.764;9.176;2022-09-09T10:41:36;97883.06;;;24.48;42.87
550;BME280;20066;48.764;9.176;2022-09-09T10:44:17;97886.59;;;25.06;45.10
550;BME280;20066;48.764;9.176;2022-09-09T10:47:00;97880.53;;;22.55;47.43
550;BME280;20066;48.764;9.176;2022-09-09T10:52:39;97876.63;;;23.35;47.96
550;BME280;20066;48.764;9.176;2022-09-09T10:55:11;97877.13;;;23.19;47.84
550;BME280;20066;48.764;9.176;2022-09-09T10:57:44;97878.72;;;23.26;47.30
550;BME280;20066;48.764;9.176;2022-09-09T11:00:17;97882.44;;;25.48;44.00
550;BME280;20066;48.764;9.176;2022-09-09T11:02:50;97876.22;;;28.13;37.20
550;BME280;20066;48.764;9.176;2022-09-09T11:05:27;97886.59;;;29.48;34.32
550;BME280;20066;48.764;9.176;2022-09-09T11:07:58;97875.66;;;27.51;38.04
550;BME280;20066;48.764;9.176;2022-09-09T11:10:36;97865.06;;;23.31;44.68
550;BME280;20066;48.764;9.176;2022-09-09T11:13:11;97859.66;;;22.87;46.03
550;BME280;20066;48.764;9.176;2022-09-09T11:15:45;97860.28;;;24.22;43.13
550;BME280;20066;48.764;9.176;2022-09-09T11:18:19;97869.53;;;26.30;39.30
550;BME280;20066;48.764;9.176;2022-09-09T11:20:53;97887.09;;;25.73;39.23
550;BME280;20066;48.764;9.176;2022-09-09T11:23:27;97886.38;;;24.32;40.38
550;BME280;20066;48.764;9.176;2022-09-09T11:26:01;97897.94;;;23.96;39.71
550;BME280;20066;48.764;9.176;2022-09-09T11:28:41;97909.66;;;22.67;41.28
550;BME280;20066;48.764;9.176;2022-09-09T11:31:21;97908.06;;;22.76;40.82
550;BME280;20066;48.764;9.176;2022-09-09T11:34:13;97910.75;;;23.64;39.33
550;BME280;20066;48.764;9.176;2022-09-09T11:37:06;97919.03;;;23.34;40.02
550;BME280;20066;48.764;9.176;2022-09-09T11:40:01;97935.78;;;22.78;41.82
550;BME280;20066;48.764;9.176;2022-09-09T11:42:36;97923.97;;;22.72;42.17
550;BME280;20066;48.764;9.176;2022-09-09T11:45:15;97925.63;;;22.69;41.91
550;BME280;20066;48.764;9.176;2022-09-09T11:47:52;97925.25;;;22.23;42.45
550;BME280;20066;48.764;9.176;2022-09-09T11:50:29;97913.72;;;21.95;43.13
550;BME280;20066;48.764;9.176;2022-09-09T11:53:20;97908.84;;;22.91;41.18
550;BME280;20066;48.764;9.176;2022-09-09T11:56:06;97915.34;;;21.45;44.29
550;BME280;20066;48.764;9.176;2022-09-09T11:58:44;97915.88;;;22.68;42.58
550;BME280;20066;48.764;9.176;2022-09-09T12:01:29;97907.88;;;23.93;38.86
550;BME280;20066;48.764;9.176;2022-09-09T12:04:26;97916.34;;;24.50;37.54
550;BME280;20066;48.764;9.176;2022-09-09T12:06:58;97917.47;;;28.68;31.49
550;BME280;20066;48.764;9.176;2022-09-09T12:09:32;97914.97;;;26.45;33.73
550;BME280;20066;48.764;9.176;2022-09-09T12:12:22;97916.53;;;25.56;35.24
550;BME280;20066;48.764;9.176;2022-09-09T12:15:16;97905.78;;;26.93;33.66
550;BME280;20066;48.764;9.176;2022-09-09T12:17:48;97908.09;;;25.70;35.89
550;BME280;20066;48.764;9.176;2022-09-09T12:20:19;97914.13;;;29.41;30.37
550;BME280;20066;48.764;9.176;2022-09-09T12:22:56;97908.41;;;31.77;27.25
550;BME280;20066;48.764;9.176;2022-09-09T12:25:34;97908.84;;;30.72;26.93
550;BME280;20066;48.764;9.176;2022-09-09T12:28:09;97899.22;;;33.10;24.01
550;BME280;20066;48.764;9.176;2022-09-09T12:30:46;97888.97;;;33.54;23.43
550;BME280;20066;48.764;9.176;2022-09-09T12:33:18;97901.63;;;32.12;23.67
550;BME280;20066;48.764;9.176;2022-09-09T12:35:50;97901.66;;;30.02;26.80
550;BME280;20066;48.764;9.176;2022-09-09T12:38:24;97898.47;;;28.84;28.41
550;BME280;20066;48.764;9.176;2022-09-09T12:40:57;97881.91;;;28.31;29.45
550;BME280;20066;48.764;9.176;2022-09-09T12:43:26;97889.63;;;27.98;28.68
550;BME280;20066;48.764;9.176;2022-09-09T12:45:57;97883.00;;;24.43;34.88
550;BME280;20066;48.764;9.176;2022-09-09T12:48:34;97870.50;;;23.61;38.54
550;BME280;20066;48.764;9.176;2022-09-09T12:51:05;97881.66;;;23.92;37.22
550;BME280;20066;48.764;9.176;2022-09-09T12:53:36;97872.34;;;23.49;38.40
550;BME280;20066;48.764;9.176;2022-09-09T12:56:09;97877.63;;;23.03;40.63
550;BME280;20066;48.764;9.176;2022-09-09T12:58:37;97867.41;;;22.89;39.44
550;BME280;20066;48.764;9.176;2022-09-09T13:01:20;97874.28;;;25.33;36.27
550;BME280;20066;48.764;9.176;2022-09-09T13:03:48;97878.41;;;30.48;28.00
550;BME280;20066;48.764;9.176;2022-09-09T13:06:20;97866.03;;;25.33;34.63
550;BME280;20066;48.764;9.176;2022-09-09T13:08:55;97873.06;;;24.25;37.48
550;BME280;20066;48.764;9.176;2022-09-09T13:11:28;97858.09;;;24.26;37.58
550;BME280;20066;48.764;9.176;2022-09-09T13:13:58;97864.09;;;25.82;35.18
550;BME280;20066;48.764;9.176;2022-09-09T13:16:28;97857.16;;;23.19;39.00
550;BME280;20066;48.764;9.176;2022-09-09T13:18:59;97853.13;;;23.69;39.10
550;BME280;20066;48.764;9.176;2022-09-09T13:21:32;97848.97;;;24.92;36.57
550;BME280;20066;48.764;9.176;2022-09-09T13:24:01;97846.53;;;27.00;33.25
550;BME280;20066;48.764;9.176;2022-09-09T13:26:31;97849.22;;;27.67;31.99
550;BME280;20066;48.764;9.176;2022-09-09T13:29:16;97840.53;;;26.90;32.82
550;BME280;20066;48.764;9.176;2022-09-09T13:31:47;97836.91;;;26.23;33.94
550;BME280;20066;48.764;9.176;2022-09-09T13:34:29;97837.31;;;25.93;33.84
550;BME280;20066;48.764;9.176;2022-09-09T13:36:59;97849.06;;;28.58;30.23
550;BME280;20066;48.764;9.176;2022-09-09T13:39:30;97830.97;;;27.13;29.90
550;BME280;20066;48.764;9.176;2022-09-09T13:41:59;97835.88;;;25.13;32.86
550;BME280;20066;48.764;9.176;2022-09-09T13:44:29;97842.44;;;23.71;36.54
550;BME280;20066;48.764;9.176;2022-09-09T13:47:03;97840.34;;;24.27;35.62
550;BME280;20066;48.764;9.176;2022-09-09T13:49:36;97832.94;;;26.40;32.44
550;BME280;20066;48.764;9.176;2022-09-09T13:52:06;97824.06;;;24.03;36.47
550;BME280;20066;48.764;9.176;2022-09-09T13:54:36;97832.84;;;24.07;36.60
550;BME280;20066;48.764;9.176;2022-09-09T13:57:11;97833.88;;;24.56;35.88